Aviation Digital Data Service (ADDS)

Output produced by METARs form (1243 UTC 22 February 2018)
found at http://www.aviationweather.gov/adds/metars/
 
LBBG 221230Z 02012KT 9000 -RA SCT013 OVC023 06/04 Q1013 R04/29//95 NOSIG
TAF LBBG 221101Z 2212/2312 03012G22KT 7000 SCT010 BKN015 OVC020 
     TEMPO 2212/2218 3000 +RA BKN007 OVC015 
     BECMG 2300/2302 03010KT 9999 NSW SCT015 OVC030
       
LBGO 221230Z AUTO 07011KT 9999 -RA FEW010/// BKN042/// OVC050/// 04/04 Q1015 R99/29//94 NOSIG
TAF LBGO 221103Z 2212/2312 10014KT 5000 RA BKN015 OVC020 
     TEMPO 2212/2215 3000 SN BKN005 OVC010 
     BECMG 2218/2220 9999 SCT015 BKN050 
     TEMPO 2302/2306 3000 BR SCT010
       
LBIA 221200Z 06012KT 8000 -RA OVC013 05/03 Q1014
LBPD 221230Z AUTO 11007KT 3900 BR OVC007/// 04/04 Q1014 R99/29//95 NOSIG
TAF LBPD 221100Z 2212/2312 08010KT 9999 BKN008 OVC012 
     PROB30 
     TEMPO 2212/2220 5000 DZ 
     BECMG 2220/2222 14008KT
       
LBPG 221200Z 12004KT 5000 BR SCT010 OVC017 05/03 Q1013 RERA
LBSF 221230Z 12013KT 090V150 9999 FEW018 BKN022 BKN028 06/02 Q1011 NOSIG
TAF LBSF 221100Z 2212/2312 12014KT 9999 SCT015 OVC025 
     PROB40 
     TEMPO 2212/2216 5000 RASN BKN010 OVC015 
     PROB30 
     TEMPO 2300/2306 5000 -SN BKN007 OVC015
       
LBWB 221200Z 04014KT 5000 RA OVC006 04/04 Q1013 R88/29//93
LBWN 221230Z 03008KT 8000 -RA SCT010 OVC014 04/02 Q1014 RERA R99/29//95 NOSIG
TAF LBWN 221100Z 2212/2312 01012KT 7000 RA BKN010 OVC020 
     TEMPO 2214/2222 3000 SNRA BKN005 OVC010 
     BECMG 2222/2224 30010KT 9999 NSW SCT007 BKN015 OVC020
       
LBBG 221230Z 02012KT 9000 -RA SCT013 OVC023 06/04 Q1013 R04/29//95 NOSIG
TAF LBBG 221101Z 2212/2312 03012G22KT 7000 SCT010 BKN015 OVC020 
     TEMPO 2212/2218 3000 +RA BKN007 OVC015 
     BECMG 2300/2302 03010KT 9999 NSW SCT015 OVC030
       
LBGO 221230Z AUTO 07011KT 9999 -RA FEW010/// BKN042/// OVC050/// 04/04 Q1015 R99/29//94 NOSIG
TAF LBGO 221103Z 2212/2312 10014KT 5000 RA BKN015 OVC020 
     TEMPO 2212/2215 3000 SN BKN005 OVC010 
     BECMG 2218/2220 9999 SCT015 BKN050 
     TEMPO 2302/2306 3000 BR SCT010
       
LBPD 221230Z AUTO 11007KT 3900 BR OVC007/// 04/04 Q1014 R99/29//95 NOSIG
TAF LBPD 221100Z 2212/2312 08010KT 9999 BKN008 OVC012 
     PROB30 
     TEMPO 2212/2220 5000 DZ 
     BECMG 2220/2222 14008KT
       
LBSF 221230Z 12013KT 090V150 9999 FEW018 BKN022 BKN028 06/02 Q1011 NOSIG
TAF LBSF 221100Z 2212/2312 12014KT 9999 SCT015 OVC025 
     PROB40 
     TEMPO 2212/2216 5000 RASN BKN010 OVC015 
     PROB30 
     TEMPO 2300/2306 5000 -SN BKN007 OVC015
       
LBWN 221230Z 03008KT 8000 -RA SCT010 OVC014 04/02 Q1014 RERA R99/29//95 NOSIG
TAF LBWN 221100Z 2212/2312 01012KT 7000 RA BKN010 OVC020 
     TEMPO 2214/2222 3000 SNRA BKN005 OVC010 
     BECMG 2222/2224 30010KT 9999 NSW SCT007 BKN015 OVC020